Time;durP1;ratioP1;P1;durP2;ratioP2;P2;SDS_P1;SDS_P2;PMS_P1;PMS_P2;Temp;Humidity;BMP_temperature;BMP_pressure;BME280_temperature;BME280_humidity;BME280_pressure;Samples;Min_cycle;Max_cycle;Signal;HPM_P1;HPM_P2
2021/08/11 00:01:49;;;;;;;4.75;2.80;;;;;;;19.72;61.91;99354.48;1720429;82;21536;-74
2021/08/11 00:04:17;;;;;;;12.15;4.15;;;;;;;19.72;62.78;99343.92;1719942;82;20881;-76
2021/08/11 00:06:45;;;;;;;3.92;3.02;;;;;;;19.75;62.91;99342.56;1755932;80;20925;-74
2021/08/11 00:09:12;;;;;;;11.03;3.90;;;;;;;19.76;62.76;99341.36;1753929;80;21049;-76
2021/08/11 00:11:40;;;;;;;4.55;3.15;;;;;;;19.76;63.13;99341.94;1744186;80;20873;-77
2021/08/11 00:14:06;;;;;;;4.17;3.15;;;;;;;19.77;63.11;99342.17;1774725;80;21522;-77
2021/08/11 00:16:39;;;;;;;6.12;3.22;;;;;;;19.78;62.87;99336.77;1740922;80;20883;-77
2021/08/11 00:19:07;;;;;;;4.37;3.08;;;;;;;19.77;62.87;99336.58;1721311;82;21026;-76
2021/08/11 00:21:34;;;;;;;8.68;3.25;;;;;;;19.75;62.72;99342.56;1715837;80;20981;-75
2021/08/11 00:24:07;;;;;;;4.10;3.15;;;;;;;19.73;62.84;99342.72;1734866;82;21494;-76
2021/08/11 00:26:40;;;;;;;4.47;2.95;;;;;;;19.68;63.22;99340.52;1765244;80;21012;-73
2021/08/11 00:29:10;;;;;;;6.90;3.62;;;;;;;19.66;63.22;99348.47;1783013;80;20881;-77
2021/08/11 00:31:45;;;;;;;3.62;2.85;;;;;;;19.65;62.84;99346.84;1697238;83;20925;-77
2021/08/11 00:34:13;;;;;;;3.40;2.70;;;;;;;19.61;63.13;99345.22;1735451;80;21084;-75
2021/08/11 00:36:43;;;;;;;4.60;3.20;;;;;;;19.54;63.03;99334.79;1728420;82;21000;-75
2021/08/11 00:39:10;;;;;;;4.20;2.50;;;;;;;19.44;63.25;99334.91;1720548;82;21539;-77
2021/08/11 00:41:44;;;;;;;3.58;2.70;;;;;;;19.39;63.44;99336.08;1748304;82;20933;-77
2021/08/11 00:44:07;;;;;;;5.75;3.33;;;;;;;19.37;63.77;99331.46;1715253;80;21110;-77
2021/08/11 00:46:43;;;;;;;7.25;2.85;;;;;;;19.37;63.54;99332.05;1727253;81;21395;-74
2021/08/11 00:49:14;;;;;;;10.00;3.45;;;;;;;19.41;63.63;99331.50;1726707;81;20956;-73
2021/08/11 00:51:43;;;;;;;3.35;3.05;;;;;;;19.45;63.46;99330.92;1753543;81;21659;-75
2021/08/11 00:54:15;;;;;;;3.62;2.85;;;;;;;19.45;62.92;99330.92;1746137;81;21025;-75
2021/08/11 00:56:50;;;;;;;4.17;3.77;;;;;;;19.43;63.31;99324.94;1727538;82;21005;-76
2021/08/11 00:59:18;;;;;;;5.83;3.20;;;;;;;19.44;63.40;99326.53;1752375;81;20937;-78
2021/08/11 01:01:48;;;;;;;5.92;3.60;;;;;;;19.45;63.39;99321.14;1727738;81;21004;-73
2021/08/11 01:04:19;;;;;;;3.25;2.92;;;;;;;19.44;63.52;99316.75;1788488;80;21477;-73
2021/08/11 01:06:48;;;;;;;4.15;3.17;;;;;;;19.42;63.60;99321.92;1757465;80;20878;-72
2021/08/11 01:09:17;;;;;;;3.98;2.83;;;;;;;19.39;63.81;99312.91;1746919;80;20965;-72
2021/08/11 01:11:49;;;;;;;6.75;3.45;;;;;;;19.35;63.92;99318.47;1706193;83;20956;-74
2021/08/11 01:14:17;;;;;;;4.05;2.80;;;;;;;19.32;64.29;99327.63;1727961;83;20965;-71
2021/08/11 01:16:47;;;;;;;4.33;3.40;;;;;;;19.32;64.48;99323.43;1743377;80;20913;-73
2021/08/11 01:19:20;;;;;;;8.00;3.12;;;;;;;19.33;64.03;99317.46;1741490;81;20968;-74
2021/08/11 01:22:11;;;;;;;5.60;2.98;;;;;;;19.34;64.43;99310.67;1756596;81;20973;-73
2021/08/11 01:25:34;;;;;;;7.55;3.25;;;;;;;19.36;64.53;99311.71;1742450;80;21053;-73
2021/08/11 01:28:45;;;;;;;5.50;3.10;;;;;;;19.35;64.51;99308.69;1708524;83;20995;-74
2021/08/11 01:31:19;;;;;;;6.30;2.83;;;;;;;19.32;64.22;99305.28;1683132;85;20958;-72
2021/08/11 01:34:04;;;;;;;4.03;3.35;;;;;;;19.25;64.26;99299.63;1726610;83;21413;-74
2021/08/11 01:36:57;;;;;;;4.90;2.77;;;;;;;19.19;64.35;99299.19;1686146;85;21088;-71
2021/08/11 01:39:45;;;;;;;3.83;3.40;;;;;;;19.08;64.89;99297.65;1715200;83;20967;-73
2021/08/11 01:42:29;;;;;;;3.77;2.85;;;;;;;18.97;65.64;99296.13;1657450;86;21820;-73
2021/08/11 01:45:05;;;;;;;7.37;3.58;;;;;;;18.90;66.01;99298.26;1709414;83;21796;-71
2021/08/11 01:47:37;;;;;;;7.30;2.67;;;;;;;18.87;66.45;99301.03;1687880;83;21529;-73
2021/08/11 01:50:08;;;;;;;4.75;2.83;;;;;;;18.84;66.80;99306.19;1710202;82;21001;-76
2021/08/11 01:52:40;;;;;;;3.90;2.85;;;;;;;18.85;66.99;99315.37;1727284;83;21004;-76
2021/08/11 01:55:09;;;;;;;3.95;2.85;;;;;;;18.86;66.96;99312.78;1726170;83;21008;-75
2021/08/11 01:57:48;;;;;;;6.47;3.58;;;;;;;18.88;66.72;99309.61;1727410;83;21069;-77
2021/08/11 02:00:22;;;;;;;8.85;3.02;;;;;;;18.89;66.45;99313.99;1723506;81;28672;-72
2021/08/11 02:02:52;;;;;;;3.83;2.80;;;;;;;18.88;66.36;99318.79;1757233;81;21085;-73
2021/08/11 02:05:24;;;;;;;7.10;3.65;;;;;;;18.85;66.88;99317.55;1756085;81;22020;-77
2021/08/11 02:07:53;;;;;;;3.80;3.35;;;;;;;18.85;66.75;99320.95;1757311;81;21091;-73
2021/08/11 02:10:26;;;;;;;4.58;2.98;;;;;;;18.82;66.36;99320.30;1714010;81;21094;-73
2021/08/11 02:12:57;;;;;;;8.08;3.58;;;;;;;18.81;66.50;99314.52;1724012;81;20964;-72
2021/08/11 02:15:26;;;;;;;3.83;3.42;;;;;;;18.80;66.64;99322.69;1747862;81;20995;-75
2021/08/11 02:17:53;;;;;;;7.37;3.80;;;;;;;18.79;66.68;99328.05;1757080;81;21532;-73
2021/08/11 02:20:21;;;;;;;5.67;3.65;;;;;;;18.78;66.85;99325.05;1751161;81;21032;-75
2021/08/11 02:22:54;;;;;;;7.20;3.72;;;;;;;18.77;66.89;99327.61;1730606;81;20952;-72
2021/08/11 02:25:24;;;;;;;4.37;3.52;;;;;;;18.77;66.84;99334.59;1722709;82;21083;-74
2021/08/11 02:28:12;;;;;;;7.40;4.10;;;;;;;18.77;66.92;99335.98;1692938;84;21480;-72
2021/08/11 02:31:09;;;;;;;6.80;4.28;;;;;;;18.75;66.99;99323.81;1679986;85;21548;-74
2021/08/11 02:33:47;;;;;;;6.53;3.77;;;;;;;18.74;66.74;99329.19;1675577;85;20926;-74
2021/08/11 02:36:31;;;;;;;7.42;4.37;;;;;;;18.70;66.56;99323.56;1653516;85;21061;-73
2021/08/11 02:39:13;;;;;;;6.67;4.15;;;;;;;18.65;66.50;99322.51;1669458;85;21470;-74
2021/08/11 02:41:52;;;;;;;5.72;4.35;;;;;;;18.60;66.52;99320.05;1646736;85;21430;-78
2021/08/11 02:44:35;;;;;;;4.80;3.92;;;;;;;18.55;66.67;99321.78;1634024;86;21041;-77
2021/08/11 02:47:05;;;;;;;5.17;4.05;;;;;;;18.48;67.05;99330.28;1672833;84;21159;-76
2021/08/11 02:49:36;;;;;;;5.42;4.00;;;;;;;18.43;67.32;99334.80;1659346;86;21791;-76
2021/08/11 02:52:05;;;;;;;4.75;4.10;;;;;;;18.41;67.39;99337.77;1719081;82;21442;-72
2021/08/11 02:54:32;;;;;;;6.53;3.55;;;;;;;18.37;67.62;99339.89;1732355;82;21589;-73
2021/08/11 02:57:04;;;;;;;8.15;3.98;;;;;;;18.36;68.12;99352.23;1706455;82;21008;-73
2021/08/11 02:59:32;;;;;;;6.87;3.72;;;;;;;18.35;68.29;99349.25;1681974;85;21492;-73
2021/08/11 03:01:59;;;;;;;5.17;3.90;;;;;;;18.35;68.44;99354.02;1682262;85;21390;-76
2021/08/11 03:04:26;;;;;;;6.85;4.15;;;;;;;18.36;68.56;99355.03;1682123;85;21036;-73
2021/08/11 03:07:02;;;;;;;7.60;3.80;;;;;;;18.37;68.45;99351.05;1681269;83;20956;-77
2021/08/11 03:09:30;;;;;;;7.95;4.33;;;;;;;18.38;68.42;99350.47;1684587;82;21030;-75
2021/08/11 03:11:59;;;;;;;8.43;3.60;;;;;;;18.34;68.49;99345.41;1734645;82;21044;-73
2021/08/11 03:14:25;;;;;;;4.10;3.70;;;;;;;18.33;68.41;99344.63;1738589;82;21629;-75
2021/08/11 03:17:06;;;;;;;4.45;3.60;;;;;;;18.33;68.71;99339.64;1710901;82;20941;-75
2021/08/11 03:19:35;;;;;;;6.47;3.70;;;;;;;18.33;68.74;99346.03;1687694;82;20921;-76
2021/08/11 03:22:12;;;;;;;5.50;3.92;;;;;;;18.30;69.10;99342.61;1703296;84;20989;-73
2021/08/11 03:24:42;;;;;;;7.45;4.10;;;;;;;18.23;69.28;99337.73;1689359;83;20873;-75
2021/08/11 03:27:21;;;;;;;3.50;3.20;;;;;;;18.21;69.65;99347.64;1724683;80;21878;-74
2021/08/11 03:29:57;;;;;;;4.33;3.33;;;;;;;18.21;69.95;99347.06;1706856;82;20973;-77
2021/08/11 03:32:26;;;;;;;7.20;3.67;;;;;;;18.28;69.85;99353.91;1722635;80;21001;-75
2021/08/11 03:34:53;;;;;;;4.95;3.95;;;;;;;18.35;69.75;99352.62;1733689;82;21016;-76
2021/08/11 03:37:19;;;;;;;5.15;3.70;;;;;;;18.42;69.73;99350.52;1745823;81;21434;-76
2021/08/11 03:39:47;;;;;;;6.72;3.50;;;;;;;18.48;69.65;99349.80;1741951;80;21246;-78
2021/08/11 03:42:14;;;;;;;5.47;3.58;;;;;;;18.54;69.65;99350.88;1748160;82;21072;-74
2021/08/11 03:44:40;;;;;;;5.10;3.87;;;;;;;18.56;69.71;99354.88;1748438;82;20921;-74
2021/08/11 03:47:08;;;;;;;4.33;3.35;;;;;;;18.58;69.87;99355.30;1750333;80;20928;-77
2021/08/11 03:49:37;;;;;;;4.55;3.35;;;;;;;18.62;69.92;99346.98;1724237;82;21030;-74
2021/08/11 03:52:08;;;;;;;6.20;3.55;;;;;;;18.66;70.14;99347.03;1687503;83;21083;-75
2021/08/11 03:54:41;;;;;;;6.70;3.17;;;;;;;18.70;70.17;99346.47;1683930;85;20919;-76
2021/08/11 03:57:10;;;;;;;4.37;3.47;;;;;;;18.73;70.29;99343.73;1692878;83;21496;-75
2021/08/11 03:59:40;;;;;;;5.35;3.67;;;;;;;18.71;70.19;99340.51;1650295;84;21002;-78
2021/08/11 04:02:10;;;;;;;5.00;3.42;;;;;;;18.71;70.43;99341.12;1641069;85;21061;-73
2021/08/11 04:04:40;;;;;;;3.75;3.15;;;;;;;18.74;70.50;99343.14;1692954;84;20882;-73
2021/08/11 04:07:10;;;;;;;7.87;3.90;;;;;;;18.79;70.46;99346.18;1740609;81;21445;-75
2021/08/11 04:09:46;;;;;;;4.92;3.33;;;;;;;18.85;70.65;99345.45;1725749;82;21083;-76
2021/08/11 04:12:12;;;;;;;6.15;3.30;;;;;;;18.91;70.28;99351.52;1776904;80;21075;-75
2021/08/11 04:14:38;;;;;;;8.60;4.20;;;;;;;18.94;70.39;99347.95;1748401;82;20972;-76
2021/08/11 04:17:15;;;;;;;5.55;3.62;;;;;;;18.98;70.22;99347.42;1704835;83;20997;-77
2021/08/11 04:19:47;;;;;;;6.78;4.10;;;;;;;19.03;70.21;99353.83;1715431;83;21433;-77
2021/08/11 04:22:17;;;;;;;4.37;3.98;;;;;;;19.08;69.69;99352.90;1716365;83;21536;-72
2021/08/11 04:24:57;;;;;;;6.90;4.30;;;;;;;19.14;69.70;99351.19;1716327;83;21056;-75
2021/08/11 04:27:30;;;;;;;8.98;3.92;;;;;;;19.20;69.42;99351.05;1713043;82;20942;-76
2021/08/11 04:30:01;;;;;;;8.48;4.15;;;;;;;19.21;69.10;99349.27;1698307;82;21202;-76
2021/08/11 04:32:33;;;;;;;6.40;3.30;;;;;;;19.23;68.82;99345.30;1697426;82;21412;-75
2021/08/11 04:35:08;;;;;;;6.90;3.75;;;;;;;19.26;68.63;99343.13;1701841;84;21003;-74
2021/08/11 04:37:38;;;;;;;6.85;3.85;;;;;;;19.26;69.04;99341.12;1702228;83;20992;-74
2021/08/11 04:40:08;;;;;;;9.95;4.50;;;;;;;19.28;68.92;99339.34;1704216;84;21072;-76
2021/08/11 04:42:34;;;;;;;11.12;3.90;;;;;;;19.30;68.87;99343.37;1677448;84;21169;-74
2021/08/11 04:45:03;;;;;;;4.80;3.50;;;;;;;19.36;68.66;99341.04;1658748;86;21109;-76
2021/08/11 04:47:33;;;;;;;6.55;3.83;;;;;;;19.39;68.63;99347.25;1667456;85;20988;-73
2021/08/11 04:49:59;;;;;;;7.10;3.83;;;;;;;19.45;69.23;99344.89;1669024;85;20993;-76
2021/08/11 04:52:25;;;;;;;6.37;4.37;;;;;;;;;;1659161;85;21043;-75
2021/08/11 04:54:51;;;;;;;8.58;4.17;;;;;;;19.58;68.92;99347.59;1647351;87;21052;-75
2021/08/11 04:57:17;;;;;;;7.72;3.70;;;;;;;19.63;68.84;99354.84;1687707;84;20996;-74
2021/08/11 04:59:43;;;;;;;8.28;4.00;;;;;;;19.69;68.87;99358.06;1704407;84;21508;-74
2021/08/11 05:02:10;;;;;;;6.28;4.05;;;;;;;19.78;68.96;99366.94;1705807;82;21085;-75
2021/08/11 05:04:56;;;;;;;10.32;3.92;;;;;;;19.87;69.08;99361.02;1686917;84;21000;-76
2021/08/11 05:07:25;;;;;;;10.53;3.85;;;;;;;19.93;69.12;99358.06;1684735;83;21117;-75
2021/08/11 05:09:54;;;;;;;5.05;4.17;;;;;;;20.00;69.41;99353.70;1696711;82;21467;-75
2021/08/11 05:12:20;;;;;;;4.50;3.77;;;;;;;20.07;69.09;99355.19;1671962;85;22401;-73
2021/08/11 05:14:50;;;;;;;6.58;3.83;;;;;;;20.13;68.90;99349.42;1704608;82;21037;-75
2021/08/11 05:17:21;;;;;;;10.82;4.47;;;;;;;20.17;68.88;99348.86;1649281;85;20977;-73
2021/08/11 05:19:45;;;;;;;6.83;3.47;;;;;;;20.28;68.82;99350.92;1680663;83;21520;-71
2021/08/11 05:22:15;;;;;;;9.00;4.20;;;;;;;20.36;68.66;99341.38;1669819;84;21032;-72
2021/08/11 05:24:52;;;;;;;7.33;4.22;;;;;;;20.44;68.76;99342.19;1686712;84;21531;-72
2021/08/11 05:27:22;;;;;;;11.18;3.52;;;;;;;20.55;68.73;99339.46;1677564;84;20969;-73
2021/08/11 05:29:57;;;;;;;8.83;4.22;;;;;;;20.66;68.45;99331.09;1657669;84;21082;-74
2021/08/11 05:32:25;;;;;;;7.97;4.50;;;;;;;20.74;68.41;99326.34;1656869;84;21304;-73
2021/08/11 05:35:09;;;;;;;5.67;3.67;;;;;;;20.82;68.24;99323.77;1684370;82;20977;-74
2021/08/11 05:37:37;;;;;;;7.95;3.95;;;;;;;20.91;68.45;99319.19;1748962;81;21037;-73
2021/08/11 05:40:05;;;;;;;8.63;3.87;;;;;;;20.98;68.16;99315.64;1721539;82;21003;-71
2021/08/11 05:42:31;;;;;;;10.70;4.15;;;;;;;21.02;68.02;99310.23;1710231;82;21417;-73
2021/08/11 05:45:18;;;;;;;7.80;3.92;;;;;;;21.08;68.25;99306.45;1677518;85;20955;-74
2021/08/11 05:47:48;;;;;;;7.70;4.08;;;;;;;21.14;68.53;99302.06;1665951;83;21544;-72
2021/08/11 05:50:23;;;;;;;;;;;;;;;21.23;68.33;99305.06;1679523;84;20972;-71
2021/08/11 05:52:52;;;;;;;9.70;4.17;;;;;;;21.31;68.36;99300.28;1656771;84;20446;-74
2021/08/11 05:55:20;;;;;;;7.87;3.90;;;;;;;21.39;68.00;99298.46;1737737;80;20973;-72
2021/08/11 05:57:48;;;;;;;7.12;3.87;;;;;;;21.49;68.14;99301.09;1732544;82;21740;-73
2021/08/11 06:00:16;;;;;;;6.50;3.72;;;;;;;21.61;67.91;99300.48;1735260;82;20988;-72
2021/08/11 06:02:48;;;;;;;8.23;4.50;;;;;;;21.70;67.85;99300.85;1740613;80;21516;-73
2021/08/11 06:05:19;;;;;;;5.37;3.35;;;;;;;21.81;67.93;99294.47;1738811;80;21206;-73
2021/08/11 06:07:52;;;;;;;7.25;3.35;;;;;;;21.88;67.55;99292.47;1734954;82;20997;-72
2021/08/11 06:10:22;;;;;;;10.88;3.80;;;;;;;21.95;67.26;99290.84;1743555;82;21536;-72
2021/08/11 06:12:58;;;;;;;11.33;3.77;;;;;;;22.01;67.81;99290.02;1743098;82;20976;-74
2021/08/11 06:15:27;;;;;;;5.20;3.37;;;;;;;22.09;67.37;99290.02;1740468;82;21066;-73
2021/08/11 06:17:54;;;;;;;8.38;3.80;;;;;;;22.20;67.60;99292.77;1734118;80;20997;-73
2021/08/11 06:20:25;;;;;;;12.05;3.90;;;;;;;22.29;67.42;99294.55;1732875;82;21080;-71
2021/08/11 06:22:54;;;;;;;5.37;3.50;;;;;;;22.36;67.64;99294.54;1732103;81;21072;-71
2021/08/11 06:25:21;;;;;;;9.35;3.58;;;;;;;22.46;67.66;99290.67;1732197;82;21548;-73
2021/08/11 06:27:50;;;;;;;7.72;3.80;;;;;;;22.55;67.62;99295.27;1719567;81;20944;-73
2021/08/11 06:30:20;;;;;;;8.30;3.70;;;;;;;22.65;66.85;99295.63;1743930;82;20949;-74
2021/08/11 06:32:48;;;;;;;18.25;3.70;;;;;;;22.73;66.89;99294.38;1751865;80;21056;-73
2021/08/11 06:35:24;;;;;;;4.65;3.70;;;;;;;22.81;67.67;99293.76;1734267;80;20954;-72
2021/08/11 06:37:52;;;;;;;9.08;3.77;;;;;;;22.89;67.32;99294.50;1727605;82;21040;-73
2021/08/11 06:40:22;;;;;;;5.20;3.52;;;;;;;23.00;67.60;99295.85;1705405;84;20981;-72
2021/08/11 06:42:52;;;;;;;7.95;3.77;;;;;;;23.08;66.97;99296.77;1714762;82;20961;-73
2021/08/11 06:45:24;;;;;;;8.55;3.30;;;;;;;23.14;67.34;99289.31;1660667;85;21062;-75
2021/08/11 06:47:53;;;;;;;6.55;3.33;;;;;;;23.19;67.14;99290.28;1673575;85;21132;-73
2021/08/11 06:50:25;;;;;;;13.00;3.58;;;;;;;23.21;66.61;99291.48;1677799;83;20995;-73
2021/08/11 06:53:03;;;;;;;7.60;3.30;;;;;;;23.29;66.67;99289.41;1672069;84;21385;-72
2021/08/11 06:55:30;;;;;;;7.58;3.20;;;;;;;23.39;66.11;99283.50;1696624;82;21413;-73
2021/08/11 06:58:04;;;;;;;7.42;3.20;;;;;;;23.48;66.34;99281.66;1720617;82;20938;-74
2021/08/11 07:00:31;;;;;;;7.87;3.22;;;;;;;23.55;64.41;99288.62;1678657;85;21535;-72
2021/08/11 07:02:59;;;;;;;5.58;3.15;;;;;;;23.56;64.05;99287.40;1665204;84;21441;-71
2021/08/11 07:05:29;;;;;;;9.00;2.98;;;;;;;23.64;64.57;99292.97;1664431;85;20970;-72
2021/08/11 07:08:00;;;;;;;7.10;3.05;;;;;;;23.74;64.24;99292.67;1669719;85;21029;-73
2021/08/11 07:10:28;;;;;;;5.17;2.50;;;;;;;23.83;63.27;99289.55;1685691;82;21041;-72
2021/08/11 07:12:56;;;;;;;6.17;3.10;;;;;;;23.89;62.89;99287.70;1679434;84;21837;-75
2021/08/11 07:15:28;;;;;;;6.87;3.00;;;;;;;23.96;62.63;99284.81;1669680;85;21006;-73
2021/08/11 07:17:57;;;;;;;3.83;2.95;;;;;;;24.05;61.70;99285.10;1653361;86;20981;-72
2021/08/11 07:20:24;;;;;;;8.95;2.87;;;;;;;24.13;60.66;99278.80;1672733;85;21016;-71
2021/08/11 07:22:59;;;;;;;10.58;2.90;;;;;;;24.20;59.88;99284.98;1674101;85;20962;-73
2021/08/11 07:25:23;;;;;;;7.37;2.63;;;;;;;24.26;59.67;99275.48;1674239;85;20997;-72
2021/08/11 07:27:53;;;;;;;4.42;2.40;;;;;;;24.34;58.31;99278.39;1683584;84;20949;-71
2021/08/11 07:30:26;;;;;;;9.73;2.95;;;;;;;24.43;59.02;99286.30;1665654;85;20930;-71
2021/08/11 07:32:54;;;;;;;8.43;2.75;;;;;;;24.50;57.03;99288.23;1655074;85;38791;-73
2021/08/11 07:35:26;;;;;;;5.90;2.60;;;;;;;24.55;56.35;99279.31;1680817;85;20992;-74
2021/08/11 07:37:55;;;;;;;7.37;2.45;;;;;;;24.63;57.43;99289.89;1680668;85;21133;-72
2021/08/11 07:40:27;;;;;;;7.90;2.42;;;;;;;24.68;55.71;99289.42;1656988;84;21023;-74
2021/08/11 07:43:01;;;;;;;4.08;2.77;;;;;;;24.74;55.30;99294.75;1641370;86;20938;-73
2021/08/11 07:45:31;;;;;;;3.10;2.40;;;;;;;24.80;55.78;99290.23;1662611;86;21454;-69
2021/08/11 07:47:59;;;;;;;6.15;2.72;;;;;;;24.88;55.54;99287.33;1657953;85;20949;-71
2021/08/11 07:50:29;;;;;;;13.53;2.85;;;;;;;24.95;55.39;99282.22;1673640;85;21165;-75
2021/08/11 07:52:56;;;;;;;3.72;2.27;;;;;;;25.03;56.48;99287.94;1689245;83;21031;-73
2021/08/11 07:55:25;;;;;;;25.50;3.60;;;;;;;25.11;54.74;99291.45;1661567;85;21013;-71
2021/08/11 07:57:59;;;;;;;12.55;2.67;;;;;;;25.10;54.96;99288.44;1681726;82;20976;-74
2021/08/11 08:00:27;;;;;;;5.40;2.62;;;;;;;25.09;55.52;99291.88;1674270;85;20965;-76
2021/08/11 08:02:57;;;;;;;11.28;4.17;;;;;;;25.12;54.40;99284.59;1676092;85;20838;-74
2021/08/11 08:05:25;;;;;;;3.75;2.52;;;;;;;25.19;53.76;99283.67;1676569;85;21001;-76
2021/08/11 08:07:57;;;;;;;8.28;2.12;;;;;;;25.22;54.01;99275.17;1701858;83;21004;-72
2021/08/11 08:10:28;;;;;;;9.23;1.98;;;;;;;25.32;54.66;99281.07;1713306;82;21004;-72
2021/08/11 08:13:01;;;;;;;5.12;2.17;;;;;;;25.42;53.12;99281.48;1705638;83;20946;-69
2021/08/11 08:15:31;;;;;;;3.20;2.00;;;;;;;25.48;51.31;99276.16;1709959;84;21156;-70
2021/08/11 08:17:59;;;;;;;4.30;2.10;;;;;;;25.50;52.57;99276.53;1709408;84;20921;-71
2021/08/11 08:20:30;;;;;;;5.45;2.10;;;;;;;25.56;51.98;99280.45;1709966;83;20937;-70
2021/08/11 08:22:58;;;;;;;6.97;2.30;;;;;;;25.59;51.26;99275.34;1699118;83;21437;-71
2021/08/11 08:25:28;;;;;;;3.15;2.30;;;;;;;25.64;51.83;99278.34;1695599;83;21476;-72
2021/08/11 08:27:55;;;;;;;3.10;2.25;;;;;;;25.73;51.34;99268.69;1723350;81;21092;-72
2021/08/11 08:30:26;;;;;;;8.00;2.22;;;;;;;25.80;51.36;99269.78;1725684;82;20880;-70
2021/08/11 08:32:53;;;;;;;2.50;1.70;;;;;;;25.87;52.37;99272.47;1706431;84;21000;-70
2021/08/11 08:35:21;;;;;;;4.78;2.10;;;;;;;25.96;51.78;99269.89;1678573;83;20969;-70
2021/08/11 08:37:55;;;;;;;2.58;2.17;;;;;;;26.04;48.34;99267.72;1660744;84;21021;-71
2021/08/11 08:40:31;;;;;;;7.05;3.00;;;;;;;26.01;47.45;99265.77;1678291;84;21472;-71
2021/08/11 08:42:59;;;;;;;6.28;2.27;;;;;;;25.95;48.77;99264.69;1678314;84;21046;-71
2021/08/11 08:45:29;;;;;;;10.63;1.95;;;;;;;26.00;49.77;99266.38;1668528;82;21458;-71
2021/08/11 08:47:57;;;;;;;3.10;2.00;;;;;;;26.02;47.80;99265.94;1677743;84;21472;-70
2021/08/11 08:50:26;;;;;;;10.28;2.58;;;;;;;26.03;47.84;99263.31;1689364;84;21036;-73
2021/08/11 08:52:56;;;;;;;3.25;2.17;;;;;;;26.12;49.09;99262.11;1684922;84;21486;-75
2021/08/11 08:55:26;;;;;;;4.70;2.58;;;;;;;26.18;46.89;99263.02;1709422;83;21477;-74
2021/08/11 08:57:54;;;;;;;7.85;2.30;;;;;;;26.19;47.04;99261.77;1705217;84;21508;-73
2021/08/11 09:00:22;;;;;;;4.15;2.10;;;;;;;26.22;46.74;99256.05;1706290;83;20969;-76
2021/08/11 09:02:48;;;;;;;7.90;2.70;;;;;;;26.30;48.30;99255.31;1706044;83;20988;-71
2021/08/11 09:05:20;;;;;;;8.00;2.22;;;;;;;26.43;47.29;99255.45;1705409;84;21425;-78
2021/08/11 09:07:52;;;;;;;3.95;2.05;;;;;;;26.48;47.26;99249.30;1710712;82;21556;-76
2021/08/11 09:10:29;;;;;;;6.30;2.15;;;;;;;26.53;47.51;99251.44;1734013;82;20970;-77
2021/08/11 09:13:09;;;;;;;10.63;1.80;;;;;;;26.63;46.60;99253.20;1730433;82;21009;-75
2021/08/11 09:15:43;;;;;;;5.62;1.92;;;;;;;26.71;44.55;99253.86;1732836;82;20990;-71
2021/08/11 09:18:17;;;;;;;4.45;1.85;;;;;;;26.77;45.09;99252.73;1732734;82;21692;-72
2021/08/11 09:20:52;;;;;;;6.25;2.27;;;;;;;26.82;44.65;99247.33;1706758;82;20977;-73
2021/08/11 09:23:37;;;;;;;6.05;2.15;;;;;;;26.90;45.11;99251.41;1731644;82;20946;-71
2021/08/11 09:26:13;;;;;;;5.42;2.47;;;;;;;26.97;45.39;99243.55;1733001;82;20993;-72
2021/08/11 09:28:44;;;;;;;3.15;1.87;;;;;;;27.10;45.77;99251.36;1728750;82;21526;-72
2021/08/11 09:31:31;;;;;;;4.42;2.25;;;;;;;27.16;46.20;99238.28;1744886;82;21802;-72
2021/08/11 09:34:10;;;;;;;7.35;2.35;;;;;;;27.16;44.86;99245.98;1746122;81;20962;-71
2021/08/11 09:36:52;;;;;;;5.33;2.17;;;;;;;27.13;44.71;99239.17;1746022;81;20954;-71
2021/08/11 09:39:18;;;;;;;4.08;2.08;;;;;;;27.18;45.97;99239.25;1739109;82;21009;-73
2021/08/11 09:42:04;;;;;;;4.55;1.92;;;;;;;27.28;45.62;99239.60;1745332;82;20993;-71
2021/08/11 09:44:38;;;;;;;3.50;2.12;;;;;;;27.36;45.61;99238.81;1745329;81;21473;-71
2021/08/11 09:47:17;;;;;;;4.95;2.00;;;;;;;27.39;43.89;99239.34;1721222;81;21286;-73
2021/08/11 09:50:06;;;;;;;2.20;1.87;;;;;;;27.44;44.15;99235.98;1745596;81;21028;-72
2021/08/11 09:52:51;;;;;;;4.87;2.47;;;;;;;27.51;42.28;99232.16;1741001;82;21620;-73
2021/08/11 09:55:25;;;;;;;6.08;1.92;;;;;;;27.54;42.30;99228.44;1745172;82;20959;-75
2021/08/11 09:57:57;;;;;;;5.03;2.08;;;;;;;27.56;43.20;99237.28;1744508;82;20990;-71
2021/08/11 10:00:27;;;;;;;3.62;1.95;;;;;;;27.57;42.43;99229.57;1745229;81;21474;-74
2021/08/11 10:03:05;;;;;;;3.25;2.17;;;;;;;27.55;42.52;99227.83;1742853;81;20906;-73
2021/08/11 10:05:35;;;;;;;4.75;1.87;;;;;;;27.63;44.07;99226.39;1745420;81;20955;-71
2021/08/11 10:08:03;;;;;;;12.03;2.45;;;;;;;27.72;43.41;99230.03;1738004;82;21024;-71
2021/08/11 10:10:48;;;;;;;3.40;1.90;;;;;;;27.75;42.13;99224.89;1720243;82;21771;-72
2021/08/11 10:13:23;;;;;;;9.15;2.00;;;;;;;27.69;40.74;99227.45;1718108;82;20997;-71
2021/08/11 10:15:55;;;;;;;5.58;2.27;;;;;;;27.67;42.07;99222.83;1717897;81;21040;-72
2021/08/11 10:22:14;;;;;;;3.67;2.20;;;;;;;27.73;41.46;99217.47;1721002;82;21417;-78
2021/08/11 10:24:45;;;;;;;7.75;2.30;;;;;;;27.75;42.63;99214.98;1712876;82;21126;-72
2021/08/11 10:27:14;;;;;;;13.20;2.45;;;;;;;27.82;40.78;99212.58;1699750;84;21512;-74
2021/08/11 10:29:42;;;;;;;3.37;1.62;;;;;;;27.90;42.24;99208.30;1714680;83;21291;-71
2021/08/11 10:32:13;;;;;;;8.30;1.92;;;;;;;27.96;41.71;99214.22;1713966;83;20981;-76
2021/08/11 10:34:45;;;;;;;8.38;2.22;;;;;;;28.01;40.23;99216.47;1746776;81;20949;-72
2021/08/11 10:37:13;;;;;;;2.62;1.95;;;;;;;28.03;39.93;99213.22;1743550;81;21051;-73
2021/08/11 10:39:43;;;;;;;3.25;1.50;;;;;;;27.97;39.79;99208.72;1744642;81;21012;-73
2021/08/11 10:42:15;;;;;;;11.63;2.02;;;;;;;28.00;39.74;99202.16;1743603;81;21491;-73
2021/08/11 10:44:46;;;;;;;3.15;1.90;;;;;;;28.08;40.13;99204.14;1696444;82;20969;-69
2021/08/11 10:47:14;;;;;;;4.10;1.80;;;;;;;28.21;40.20;99205.60;1721151;82;21555;-73
2021/08/11 10:50:03;;;;;;;4.78;2.27;;;;;;;28.26;37.96;99208.49;1683699;85;21060;-73
2021/08/11 10:52:33;;;;;;;1.87;1.65;;;;;;;28.18;35.79;99206.51;1712230;81;21089;-72
2021/08/11 10:55:01;;;;;;;2.98;1.80;;;;;;;28.11;36.95;99200.44;1746271;80;20925;-71
2021/08/11 11:01:44;;;;;;;3.13;1.67;;;;;;;28.10;38.35;99200.89;1713682;83;21064;-73
2021/08/11 11:04:13;;;;;;;9.63;1.90;;;;;;;28.18;39.29;99195.95;1698219;83;21690;-73
2021/08/11 11:06:52;;;;;;;7.58;2.05;;;;;;;28.28;36.92;99192.66;1721492;82;21228;-71
2021/08/11 11:09:22;;;;;;;10.98;1.60;;;;;;;28.35;36.66;99190.25;1748570;82;21060;-74
2021/08/11 11:11:54;;;;;;;2.90;1.45;;;;;;;28.46;36.42;99193.35;1753688;81;21031;-73
2021/08/11 11:14:53;;;;;;;9.58;2.08;;;;;;;28.47;35.77;99193.54;1723615;81;20980;-75
2021/08/11 11:17:34;;;;;;;47.40;3.80;;;;;;;28.48;36.64;99186.00;1750159;81;21795;-76
2021/08/11 11:20:10;;;;;;;2.77;1.80;;;;;;;28.54;36.74;99190.49;1747591;82;21001;-76
2021/08/11 11:22:57;;;;;;;4.53;1.80;;;;;;;28.58;36.21;99185.48;1747455;82;21017;-72
2021/08/11 11:25:59;;;;;;;15.05;2.22;;;;;;;28.58;37.89;99186.91;1742464;82;20981;-75
2021/08/11 11:29:10;;;;;;;4.65;1.70;;;;;;;28.67;36.96;99187.03;1694506;83;20996;-73
2021/08/11 11:31:46;;;;;;;3.98;1.62;;;;;;;28.72;36.73;99187.70;1685771;84;21093;-72
2021/08/11 11:34:35;;;;;;;4.35;2.10;;;;;;;28.67;36.22;99190.48;1688107;84;21027;-72
2021/08/11 11:37:06;;;;;;;4.83;1.75;;;;;;;28.62;36.72;99183.34;1680702;84;21100;-73
2021/08/11 11:39:35;;;;;;;5.92;1.40;;;;;;;28.68;37.31;99177.89;1689507;84;21036;-73
2021/08/11 11:42:22;;;;;;;4.55;2.17;;;;;;;28.76;37.49;99177.05;1684627;84;21087;-72
2021/08/11 11:44:57;;;;;;;4.58;1.65;;;;;;;28.82;37.66;99178.67;1689971;84;21072;-71
2021/08/11 11:47:42;;;;;;;5.15;1.55;;;;;;;28.91;37.31;99173.12;1688459;84;21536;-73
2021/08/11 11:50:33;;;;;;;3.33;1.80;;;;;;;28.97;37.56;99162.00;1689880;84;21076;-73
2021/08/11 11:53:02;;;;;;;8.95;1.80;;;;;;;28.97;35.46;99169.09;1689127;84;21036;-76
2021/08/11 11:55:42;;;;;;;5.67;1.45;;;;;;;28.91;36.10;99175.34;1692080;83;21055;-74
2021/08/11 11:58:15;;;;;;;4.42;1.47;;;;;;;28.91;35.40;99167.45;1690134;84;21083;-75
2021/08/11 12:00:51;;;;;;;3.22;1.67;;;;;;;28.94;35.87;99172.81;1689309;83;21039;-73
2021/08/11 12:03:18;;;;;;;;;;;;;;;28.88;35.24;99165.53;1705291;84;20981;-76
2021/08/11 12:05:52;;;;;;;12.00;1.90;;;;;;;28.90;36.75;99167.30;1702338;84;20155;-76
2021/08/11 12:08:20;;;;;;;5.80;1.90;;;;;;;28.98;37.03;99165.03;1721037;82;21096;-76